Time;durP1;ratioP1;P1;durP2;ratioP2;P2;SDS_P1;SDS_P2;PMS_P1;PMS_P2;Temp;Humidity;BMP_temperature;BMP_pressure;BME280_temperature;BME280_humidity;BME280_pressure;Samples;Min_cycle;Max_cycle;Signal;HPM_P1;HPM_P2
2023/09/01 04:01:44;;;;;;;1.88;1.77;;;11.30;99.90;;;;;;6119233;23;20222;-73
2023/09/01 04:04:11;;;;;;;3.42;1.83;;;11.30;99.90;;;;;;6150778;23;20203;-72
2023/09/01 04:06:38;;;;;;;4.97;2.75;;;11.30;99.90;;;;;;6152222;23;20180;-72
2023/09/01 04:09:05;;;;;;;2.00;2.00;;;11.20;99.90;;;;;;6152391;23;20269;-73
2023/09/01 04:11:32;;;;;;;2.35;2.25;;;11.20;99.90;;;;;;6152145;23;20525;-73
2023/09/01 04:13:59;;;;;;;2.35;2.25;;;11.30;99.90;;;;;;6152401;23;20183;-72
2023/09/01 04:18:58;;;;;;;2.47;2.20;;;11.20;99.90;;;;;;6153079;23;20230;-69
2023/09/01 04:21:25;;;;;;;4.13;2.35;;;11.20;99.90;;;;;;6152285;23;20190;-69
2023/09/01 04:23:51;;;;;;;2.75;1.80;;;11.20;99.90;;;;;;6152929;23;20188;-69
2023/09/01 04:26:18;;;;;;;4.07;2.05;;;11.20;99.90;;;;;;6151698;23;20184;-69
2023/09/01 04:28:45;;;;;;;2.53;2.33;;;11.20;99.90;;;;;;6152660;23;20815;-69
2023/09/01 04:31:17;;;;;;;2.88;2.60;;;11.20;99.90;;;;;;6153828;23;20190;-68
2023/09/01 04:33:43;;;;;;;2.53;2.03;;;11.20;99.90;;;;;;6153754;23;20636;-69
2023/09/01 04:36:11;;;;;;;3.03;2.25;;;11.20;99.90;;;;;;6153181;23;20179;-69
2023/09/01 04:38:38;;;;;;;2.50;2.40;;;11.20;99.90;;;;;;6154716;23;20199;-70
2023/09/01 04:41:05;;;;;;;2.65;2.42;;;11.20;99.90;;;;;;6153632;23;20179;-70
2023/09/01 04:43:32;;;;;;;2.50;1.95;;;11.20;99.90;;;;;;6153543;23;20667;-69
2023/09/01 04:45:58;;;;;;;2.58;2.25;;;11.20;99.90;;;;;;6153590;23;20203;-69
2023/09/01 04:48:26;;;;;;;2.13;2.03;;;11.30;99.90;;;;;;6154304;23;20222;-68
2023/09/01 04:50:53;;;;;;;3.65;2.53;;;11.30;99.90;;;;;;6153220;23;20215;-70
2023/09/01 04:53:22;;;;;;;2.17;2.08;;;11.30;99.90;;;;;;6154477;23;20183;-69
2023/09/01 04:55:49;;;;;;;4.18;2.65;;;11.30;99.90;;;;;;6151675;23;20179;-70
2023/09/01 04:58:16;;;;;;;3.03;2.83;;;11.30;99.90;;;;;;6152011;23;20203;-68
2023/09/01 05:00:43;;;;;;;6.28;2.70;;;11.40;99.90;;;;;;6153885;23;20186;-69
2023/09/01 05:03:09;;;;;;;5.70;2.60;;;11.40;99.90;;;;;;6153722;23;20183;-70
2023/09/01 05:05:36;;;;;;;3.60;3.30;;;11.40;99.90;;;;;;6154245;23;20200;-68
2023/09/01 05:08:03;;;;;;;4.05;2.88;;;11.40;99.90;;;;;;6153689;23;20207;-69
2023/09/01 05:10:31;;;;;;;4.07;2.50;;;11.40;99.90;;;;;;6153142;23;20258;-70
2023/09/01 05:12:58;;;;;;;3.00;2.80;;;11.50;99.90;;;;;;6153524;23;20191;-69
2023/09/01 05:15:24;;;;;;;3.28;2.97;;;11.50;99.90;;;;;;6154191;23;20179;-69
2023/09/01 05:17:51;;;;;;;2.78;2.47;;;11.50;99.90;;;;;;6153368;23;20723;-70
2023/09/01 05:20:18;;;;;;;4.10;2.75;;;11.50;99.90;;;;;;6153689;23;20183;-69
2023/09/01 05:22:45;;;;;;;2.85;2.65;;;11.60;99.90;;;;;;6153535;23;20186;-68
2023/09/01 05:25:12;;;;;;;2.85;2.50;;;11.60;99.90;;;;;;6153209;23;20211;-69
2023/09/01 05:27:40;;;;;;;3.00;2.80;;;11.60;99.90;;;;;;6153649;23;20203;-69
2023/09/01 05:30:07;;;;;;;2.50;2.40;;;11.70;99.90;;;;;;6153082;23;20180;-69
2023/09/01 05:32:35;;;;;;;7.47;3.40;;;11.70;99.90;;;;;;6153499;23;20602;-70
2023/09/01 05:35:01;;;;;;;4.80;3.15;;;11.70;99.90;;;;;;6153997;23;20190;-70
2023/09/01 05:37:28;;;;;;;2.63;2.50;;;11.80;99.90;;;;;;6152759;23;20687;-69
2023/09/01 05:39:56;;;;;;;3.17;2.97;;;11.80;99.90;;;;;;6153178;23;20179;-70
2023/09/01 05:42:22;;;;;;;4.18;2.92;;;11.90;99.90;;;;;;6153705;23;20186;-69
2023/09/01 05:44:51;;;;;;;2.58;2.47;;;11.90;99.90;;;;;;6154193;23;20202;-69
2023/09/01 05:47:17;;;;;;;2.50;2.30;;;12.00;99.90;;;;;;6152743;23;20210;-69
2023/09/01 05:49:44;;;;;;;3.30;3.00;;;12.00;99.90;;;;;;6154104;23;20180;-70
2023/09/01 05:52:11;;;;;;;2.42;2.25;;;12.00;99.90;;;;;;6152771;23;20608;-70
2023/09/01 05:54:37;;;;;;;3.20;2.90;;;12.10;99.90;;;;;;6154189;23;20176;-68
2023/09/01 05:57:05;;;;;;;3.58;2.78;;;12.10;99.90;;;;;;6154064;23;20267;-69
2023/09/01 05:59:31;;;;;;;4.55;2.90;;;12.10;99.90;;;;;;6152880;23;20184;-68
2023/09/01 06:01:59;;;;;;;3.95;2.90;;;12.20;99.90;;;;;;6153306;23;20179;-69
2023/09/01 06:04:26;;;;;;;2.90;2.70;;;12.20;99.90;;;;;;6153677;23;20184;-69
2023/09/01 06:06:53;;;;;;;2.78;2.58;;;12.20;99.90;;;;;;6151510;23;20713;-69
2023/09/01 06:09:19;;;;;;;5.03;2.63;;;12.30;99.90;;;;;;6153286;23;20179;-69
2023/09/01 06:11:46;;;;;;;4.13;2.97;;;12.40;99.90;;;;;;6153739;23;20425;-69
2023/09/01 06:14:13;;;;;;;3.40;2.73;;;12.50;99.90;;;;;;6152831;23;20419;-68
2023/09/01 06:16:40;;;;;;;2.67;2.50;;;12.50;99.90;;;;;;6153181;23;20415;-69
2023/09/01 06:19:08;;;;;;;3.08;2.97;;;12.60;99.90;;;;;;6153706;23;20501;-69
2023/09/01 06:21:34;;;;;;;3.37;3.17;;;12.70;99.90;;;;;;6152710;23;20179;-69
2023/09/01 06:24:01;;;;;;;2.45;2.33;;;12.70;99.90;;;;;;6170596;23;20429;-69
2023/09/01 06:26:28;;;;;;;3.73;2.43;;;12.80;99.90;;;;;;6169945;23;20215;-70
2023/09/01 06:28:54;;;;;;;2.63;2.42;;;12.90;99.90;;;;;;6154434;23;20880;-69
2023/09/01 06:31:21;;;;;;;4.90;2.47;;;13.00;99.90;;;;;;6154837;23;20183;-69
2023/09/01 06:33:48;;;;;;;4.30;2.77;;;13.10;99.90;;;;;;6154081;23;20418;-70
2023/09/01 06:36:18;;;;;;;2.50;2.40;;;13.20;99.90;;;;;;6153186;23;20514;-68
2023/09/01 06:38:45;;;;;;;2.53;2.43;;;13.30;99.90;;;;;;6153052;23;20455;-70
2023/09/01 06:41:13;;;;;;;1.73;1.73;;;13.30;99.90;;;;;;6153308;23;20526;-69
2023/09/01 06:43:40;;;;;;;3.80;2.00;;;13.40;99.90;;;;;;6153393;23;20418;-70
2023/09/01 06:46:07;;;;;;;1.60;1.60;;;13.50;99.90;;;;;;6153619;23;20451;-68
2023/09/01 06:48:35;;;;;;;2.70;2.57;;;13.60;99.90;;;;;;6152310;23;20947;-68
2023/09/01 06:51:02;;;;;;;4.03;2.13;;;13.70;99.90;;;;;;6151549;23;20733;-69
2023/09/01 06:53:30;;;;;;;2.50;2.30;;;13.70;99.90;;;;;;6153109;23;20423;-69
2023/09/01 06:55:57;;;;;;;2.20;2.10;;;13.80;99.90;;;;;;6152786;23;20426;-69
2023/09/01 06:58:23;;;;;;;1.97;1.87;;;13.90;99.90;;;;;;6153384;23;20522;-68
2023/09/01 07:00:51;;;;;;;2.40;2.30;;;13.90;99.90;;;;;;6152478;23;20519;-69
2023/09/01 07:03:18;;;;;;;3.93;2.33;;;14.00;99.90;;;;;;6152390;23;20419;-68
2023/09/01 07:05:54;;;;;;;1.40;1.40;;;14.00;99.90;;;;;;6153185;23;20639;-69
2023/09/01 07:08:21;;;;;;;1.63;1.63;;;14.00;99.90;;;;;;6151133;23;20469;-69
2023/09/01 07:10:49;;;;;;;1.87;1.77;;;14.10;99.90;;;;;;6153273;23;20473;-68
2023/09/01 07:13:16;;;;;;;1.90;1.57;;;14.20;99.90;;;;;;6152774;23;20418;-69
2023/09/01 07:15:47;;;;;;;1.57;1.47;;;14.30;99.90;;;;;;6152527;23;20421;-69
2023/09/01 07:18:14;;;;;;;2.17;2.03;;;14.40;99.90;;;;;;6151784;23;20450;-69
2023/09/01 07:20:41;;;;;;;1.90;1.80;;;14.40;99.90;;;;;;6151891;23;20753;-69
2023/09/01 07:23:08;;;;;;;1.53;1.53;;;14.40;99.90;;;;;;6153122;23;20439;-70
2023/09/01 07:25:34;;;;;;;2.63;2.10;;;14.50;99.90;;;;;;6152000;23;20447;-69
2023/09/01 07:28:02;;;;;;;1.50;1.50;;;14.60;99.90;;;;;;6153266;23;20447;-70
2023/09/01 07:30:32;;;;;;;2.00;1.93;;;14.70;99.90;;;;;;6152529;23;20418;-69
2023/09/01 07:32:59;;;;;;;1.57;1.47;;;14.70;99.90;;;;;;6152994;23;20419;-69
2023/09/01 07:35:25;;;;;;;1.60;1.60;;;14.80;99.90;;;;;;6152421;23;20904;-70
2023/09/01 07:37:51;;;;;;;1.63;1.63;;;14.80;99.90;;;;;;6151659;23;20450;-69
2023/09/01 07:40:18;;;;;;;2.57;1.67;;;14.90;99.90;;;;;;6152490;23;20426;-70
2023/09/01 07:42:44;;;;;;;1.40;1.40;;;15.00;99.90;;;;;;6153727;23;20182;-68
2023/09/01 07:45:12;;;;;;;1.40;1.40;;;15.00;99.90;;;;;;6152604;23;20442;-69
2023/09/01 07:47:39;;;;;;;1.73;1.67;;;15.10;99.90;;;;;;6152299;23;20445;-69
2023/09/01 07:50:07;;;;;;;3.60;1.73;;;15.10;99.90;;;;;;6152589;23;20502;-68
2023/09/01 07:52:34;;;;;;;1.20;1.20;;;15.20;99.90;;;;;;6152194;23;20426;-69
2023/09/01 07:55:00;;;;;;;1.37;1.37;;;15.30;99.90;;;;;;6153053;23;20474;-69
2023/09/01 07:57:27;;;;;;;1.00;1.00;;;15.40;99.90;;;;;;6153131;23;20445;-69
2023/09/01 07:59:54;;;;;;;4.73;1.50;;;15.40;99.90;;;;;;6152712;23;20735;-70
2023/09/01 08:02:22;;;;;;;1.40;1.40;;;15.50;99.90;;;;;;6152887;23;20418;-69
2023/09/01 08:04:48;;;;;;;1.30;1.30;;;15.60;99.90;;;;;;6154219;23;20425;-69
2023/09/01 08:07:15;;;;;;;1.60;1.33;;;15.60;99.90;;;;;;6153764;23;20457;-70
2023/09/01 08:09:42;;;;;;;1.30;1.30;;;15.70;99.90;;;;;;6153968;23;20465;-69
2023/09/01 08:12:09;;;;;;;1.30;1.30;;;15.80;99.90;;;;;;6155053;23;20418;-68
2023/09/01 08:14:36;;;;;;;1.37;1.30;;;15.80;99.90;;;;;;6154097;23;20419;-69
2023/09/01 08:17:03;;;;;;;2.30;1.13;;;15.90;99.90;;;;;;6155150;23;20442;-69
2023/09/01 08:19:31;;;;;;;2.27;1.83;;;16.00;99.90;;;;;;6154211;23;20441;-71
2023/09/01 08:21:57;;;;;;;1.70;1.37;;;16.10;99.90;;;;;;6154087;23;20999;-70
2023/09/01 08:24:24;;;;;;;1.13;1.07;;;16.20;99.90;;;;;;6153595;23;20478;-69
2023/09/01 08:26:52;;;;;;;1.10;1.00;;;16.30;99.90;;;;;;6153101;23;20477;-69
2023/09/01 08:29:18;;;;;;;1.27;1.17;;;16.40;99.90;;;;;;6154050;23;20427;-69
2023/09/01 08:31:45;;;;;;;1.53;1.53;;;16.50;99.90;;;;;;6154340;23;20930;-69
2023/09/01 08:34:12;;;;;;;1.33;0.93;;;16.60;99.90;;;;;;6154956;23;20422;-68
2023/09/01 08:36:40;;;;;;;1.10;1.10;;;16.60;99.90;;;;;;6154428;23;20419;-69
2023/09/01 08:39:07;;;;;;;0.80;0.80;;;16.70;99.90;;;;;;6154197;23;20430;-70
2023/09/01 08:41:34;;;;;;;1.00;0.90;;;16.80;99.90;;;;;;6154680;23;20426;-70
2023/09/01 08:44:06;;;;;;;1.63;1.07;;;16.80;99.90;;;;;;6153206;23;20720;-70
2023/09/01 08:46:33;;;;;;;0.70;0.70;;;16.90;99.90;;;;;;6152540;23;20450;-68
2023/09/01 08:49:02;;;;;;;1.50;1.00;;;17.00;99.90;;;;;;6153338;23;21075;-68
2023/09/01 08:51:30;;;;;;;1.13;0.67;;;17.00;99.90;;;;;;6153959;23;20444;-68
2023/09/01 08:53:59;;;;;;;0.93;0.93;;;17.10;99.90;;;;;;6154276;23;20883;-69
2023/09/01 08:56:26;;;;;;;0.87;0.60;;;17.10;99.90;;;;;;6153795;23;20426;-68
2023/09/01 08:58:53;;;;;;;0.73;0.73;;;17.20;99.90;;;;;;6154899;23;20419;-69
2023/09/01 09:01:20;;;;;;;1.07;0.70;;;17.20;99.90;;;;;;6155058;23;20422;-68
2023/09/01 09:03:47;;;;;;;1.30;0.90;;;17.30;99.90;;;;;;6154329;23;20523;-68
2023/09/01 09:06:14;;;;;;;0.50;0.50;;;17.30;99.90;;;;;;6151259;23;20449;-69
2023/09/01 09:08:41;;;;;;;0.60;0.60;;;17.40;99.90;;;;;;6154859;23;20446;-69
2023/09/01 09:11:13;;;;;;;2.47;0.87;;;17.50;99.90;;;;;;6155045;23;20795;-69
2023/09/01 09:13:40;;;;;;;1.70;0.63;;;17.60;99.90;;;;;;6154137;23;20471;-69
2023/09/01 09:16:08;;;;;;;0.80;0.80;;;17.60;99.90;;;;;;6154282;23;20447;-70
2023/09/01 09:18:36;;;;;;;0.70;0.70;;;17.50;99.90;;;;;;6153661;23;20452;-69
2023/09/01 09:21:04;;;;;;;0.67;0.67;;;17.60;99.90;;;;;;6153855;23;20738;-69
2023/09/01 09:23:44;;;;;;;0.60;0.60;;;17.60;99.90;;;;;;6153905;23;20501;-70
2023/09/01 09:26:13;;;;;;;0.70;0.70;;;17.60;99.90;;;;;;6153431;23;20506;-68
2023/09/01 09:28:40;;;;;;;0.60;0.60;;;17.60;99.90;;;;;;6153438;23;20443;-70
2023/09/01 09:31:07;;;;;;;0.60;0.60;;;17.70;99.90;;;;;;6153906;23;20409;-69
2023/09/01 09:33:35;;;;;;;0.83;0.83;;;17.70;99.90;;;;;;6153772;23;20424;-70
2023/09/01 09:36:03;;;;;;;0.80;0.80;;;17.70;99.90;;;;;;6153319;23;20780;-69
2023/09/01 09:38:48;;;;;;;0.80;0.80;;;17.70;99.90;;;;;;6153881;23;20471;-70
2023/09/01 09:41:16;;;;;;;0.70;0.70;;;17.80;99.90;;;;;;6153950;23;20403;-69
2023/09/01 09:43:45;;;;;;;2.23;0.90;;;17.90;99.90;;;;;;6153654;23;20752;-70
2023/09/01 09:46:13;;;;;;;0.83;0.83;;;18.00;99.90;;;;;;6153935;23;20444;-70
2023/09/01 09:48:40;;;;;;;0.57;0.57;;;18.10;99.90;;;;;;6154173;23;20527;-69
2023/09/01 09:51:08;;;;;;;0.70;0.70;;;18.10;99.90;;;;;;6153050;23;20983;-70
2023/09/01 09:53:36;;;;;;;0.83;0.83;;;18.20;99.90;;;;;;6152956;23;20421;-70
2023/09/01 09:56:32;;;;;;;0.97;0.80;;;18.10;99.90;;;;;;6154057;23;20476;-70
2023/09/01 09:59:02;;;;;;;0.73;0.73;;;18.20;99.90;;;;;;6153960;23;20424;-70
2023/09/01 10:01:32;;;;;;;1.80;0.83;;;18.20;99.90;;;;;;6153779;23;20410;-70
2023/09/01 10:03:59;;;;;;;0.70;0.70;;;18.30;99.90;;;;;;6154127;23;20422;-69
2023/09/01 10:06:26;;;;;;;0.70;0.70;;;18.30;99.90;;;;;;6151999;23;20957;-71
2023/09/01 10:08:54;;;;;;;0.70;0.70;;;18.40;99.90;;;;;;6154185;23;20428;-71
2023/09/01 10:11:22;;;;;;;0.60;0.60;;;18.50;99.90;;;;;;6154576;23;20424;-72
2023/09/01 10:13:50;;;;;;;0.40;0.40;;;18.60;99.90;;;;;;6152981;23;20429;-70
2023/09/01 10:16:19;;;;;;;1.67;1.57;;;18.70;99.90;;;;;;6154068;23;20429;-70
2023/09/01 10:21:21;;;;;;;0.57;0.57;;;19.00;99.90;;;;;;6158690;23;20506;-70
2023/09/01 10:23:48;;;;;;;0.73;0.73;;;19.10;99.90;;;;;;6160396;23;20414;-70
2023/09/01 10:26:17;;;;;;;0.70;0.70;;;19.30;99.90;;;;;;6157033;23;20455;-70
2023/09/01 10:29:03;;;;;;;0.60;0.60;;;19.20;99.90;;;;;;6158764;23;20422;-70
2023/09/01 10:31:32;;;;;;;0.63;0.63;;;19.20;99.90;;;;;;6129544;23;20487;-70
2023/09/01 10:34:09;;;;;;;1.00;1.00;;;19.20;99.90;;;;;;6129496;23;20420;-70
2023/09/01 10:36:38;;;;;;;0.50;0.50;;;19.30;99.90;;;;;;6126704;23;20407;-70
2023/09/01 10:39:23;;;;;;;0.60;0.60;;;19.20;99.90;;;;;;6123677;23;20435;-70
2023/09/01 10:41:55;;;;;;;0.50;0.50;;;19.30;99.90;;;;;;6122695;23;20430;-70
2023/09/01 10:44:26;;;;;;;0.70;0.70;;;19.30;99.90;;;;;;6123282;23;20423;-70
2023/09/01 10:46:52;;;;;;;0.67;0.67;;;19.30;99.90;;;;;;6122719;23;20457;-70
2023/09/01 10:49:20;;;;;;;0.40;0.40;;;19.30;99.90;;;;;;6123962;23;20447;-69
2023/09/01 10:51:46;;;;;;;0.63;0.63;;;19.40;99.90;;;;;;6122936;23;20433;-69
2023/09/01 10:54:44;;;;;;;1.63;0.70;;;19.50;99.90;;;;;;6123726;23;20988;-69
2023/09/01 10:57:14;;;;;;;0.90;0.90;;;19.60;99.90;;;;;;6123424;23;20416;-70
2023/09/01 10:59:42;;;;;;;0.70;0.70;;;19.60;99.90;;;;;;6120257;23;20443;-69
2023/09/01 11:02:19;;;;;;;0.73;0.73;;;19.70;99.90;;;;;;6121438;23;20738;-69
2023/09/01 11:04:47;;;;;;;0.70;0.70;;;19.90;99.90;;;;;;6123679;23;20453;-69
2023/09/01 11:07:14;;;;;;;0.50;0.50;;;20.00;99.90;;;;;;6122710;23;20456;-69
2023/09/01 11:09:56;;;;;;;1.27;0.50;;;20.00;99.90;;;;;;6120003;23;20452;-70
2023/09/01 11:12:33;;;;;;;0.60;0.50;;;20.10;99.90;;;;;;6122776;23;20453;-70
2023/09/01 11:15:05;;;;;;;1.70;0.50;;;20.20;99.90;;;;;;6119088;23;20445;-69
2023/09/01 11:17:37;;;;;;;0.83;0.83;;;20.20;99.90;;;;;;6119705;23;20491;-69
2023/09/01 11:20:08;;;;;;;0.77;0.77;;;20.30;99.90;;;;;;6120795;23;20841;-69
2023/09/01 11:22:35;;;;;;;0.70;0.70;;;20.30;99.90;;;;;;6121144;23;20412;-69
2023/09/01 11:25:02;;;;;;;1.53;0.93;;;20.40;99.90;;;;;;6122760;23;20762;-69
2023/09/01 11:27:30;;;;;;;0.83;0.83;;;20.50;99.90;;;;;;6122041;23;20578;-69
2023/09/01 11:29:57;;;;;;;0.73;0.73;;;20.40;99.90;;;;;;6122600;23;20822;-69
2023/09/01 11:32:28;;;;;;;0.40;0.40;;;20.50;99.90;;;;;;6122303;23;20934;-70
2023/09/01 11:34:55;;;;;;;2.20;1.10;;;20.70;99.90;;;;;;6121021;23;20541;-70
2023/09/01 11:37:35;;;;;;;0.50;0.50;;;20.80;99.90;;;;;;6121760;23;20427;-69
2023/09/01 11:40:04;;;;;;;1.10;0.93;;;20.70;99.90;;;;;;6122842;23;20445;-69
2023/09/01 11:42:33;;;;;;;0.60;0.60;;;20.70;99.90;;;;;;6121479;23;20452;-70
2023/09/01 11:45:00;;;;;;;0.97;0.73;;;20.70;99.90;;;;;;6121205;23;20430;-70
2023/09/01 11:47:28;;;;;;;1.20;1.20;;;20.70;99.90;;;;;;6122783;23;20753;-70
2023/09/01 11:49:56;;;;;;;1.60;0.60;;;20.70;99.90;;;;;;6122190;23;20454;-70
2023/09/01 11:52:24;;;;;;;1.00;1.00;;;20.80;99.90;;;;;;6121673;23;20427;-70
2023/09/01 11:54:51;;;;;;;0.77;0.77;;;20.80;99.90;;;;;;6122235;23;20735;-70
2023/09/01 11:57:18;;;;;;;0.70;0.70;;;20.70;99.90;;;;;;6121935;23;20555;-70
2023/09/01 11:59:45;;;;;;;0.70;0.70;;;20.70;99.90;;;;;;6121504;23;20558;-70
2023/09/01 12:02:13;;;;;;;1.80;1.00;;;20.70;99.90;;;;;;6121849;23;20428;-70
2023/09/01 12:04:47;;;;;;;0.63;0.63;;;20.80;99.90;;;;;;6121698;23;20441;-71
2023/09/01 12:07:25;;;;;;;0.90;0.90;;;20.80;99.90;;;;;;6121590;23;20494;-70
2023/09/01 12:09:53;;;;;;;0.60;0.60;;;20.90;99.90;;;;;;6122505;23;20450;-71
2023/09/01 12:12:20;;;;;;;0.80;0.80;;;20.90;99.90;;;;;;6121751;23;20427;-70
2023/09/01 12:14:46;;;;;;;0.90;0.70;;;20.90;99.90;;;;;;6123174;23;20431;-72
2023/09/01 12:17:18;;;;;;;0.93;0.67;;;20.90;99.90;;;;;;6122829;23;20446;-71
2023/09/01 12:19:49;;;;;;;0.77;0.77;;;21.00;99.90;;;;;;6121418;23;20451;-71
2023/09/01 12:22:17;;;;;;;0.60;0.60;;;21.00;99.90;;;;;;6122397;23;20876;-71
2023/09/01 12:24:51;;;;;;;0.90;0.90;;;21.00;99.90;;;;;;6124010;23;20426;-71
2023/09/01 12:27:18;;;;;;;1.20;1.20;;;21.00;99.90;;;;;;6123786;23;20456;-71
2023/09/01 12:29:44;;;;;;;0.67;0.67;;;21.00;99.90;;;;;;6124158;23;20445;-71
2023/09/01 12:32:11;;;;;;;1.03;1.00;;;20.90;99.90;;;;;;6124275;23;20422;-71
2023/09/01 12:34:37;;;;;;;0.60;0.60;;;20.90;99.90;;;;;;6123852;23;20478;-70
2023/09/01 12:37:06;;;;;;;0.80;0.80;;;21.00;99.90;;;;;;6125741;23;20423;-71
2023/09/01 12:39:33;;;;;;;0.80;0.80;;;21.00;99.90;;;;;;6125315;23;20207;-70
2023/09/01 12:42:00;;;;;;;1.50;1.17;;;21.00;99.90;;;;;;6125637;23;20430;-70
2023/09/01 12:44:27;;;;;;;0.80;0.80;;;20.90;99.90;;;;;;6125399;23;20907;-70
2023/09/01 12:46:54;;;;;;;1.00;1.00;;;20.90;99.90;;;;;;6123820;23;20806;-70
2023/09/01 12:49:21;;;;;;;1.20;1.20;;;20.80;99.90;;;;;;6122630;23;20508;-69
2023/09/01 12:51:48;;;;;;;1.27;1.00;;;20.80;99.90;;;;;;6123372;23;20430;-70
2023/09/01 12:54:16;;;;;;;4.23;1.10;;;20.80;99.90;;;;;;6123122;23;20422;-70
2023/09/01 12:56:44;;;;;;;1.60;1.40;;;20.90;99.90;;;;;;6123560;23;20426;-69
2023/09/01 12:59:11;;;;;;;1.30;1.30;;;20.90;99.90;;;;;;6123167;23;20505;-70
2023/09/01 13:01:38;;;;;;;0.97;0.80;;;20.80;99.90;;;;;;6123405;23;20422;-70
2023/09/01 13:04:05;;;;;;;1.53;1.53;;;20.80;99.90;;;;;;6123144;23;20755;-71
2023/09/01 13:06:32;;;;;;;1.10;1.10;;;20.80;99.90;;;;;;6120661;23;20518;-70
2023/09/01 13:09:01;;;;;;;1.60;1.03;;;20.80;99.90;;;;;;6122676;23;20425;-70
2023/09/01 13:11:29;;;;;;;1.00;1.00;;;20.90;99.90;;;;;;6122518;23;20501;-70
2023/09/01 13:13:56;;;;;;;1.80;1.33;;;20.80;99.90;;;;;;6123489;23;20427;-70
2023/09/01 13:16:28;;;;;;;2.40;1.50;;;20.80;99.90;;;;;;6123199;23;20506;-70
2023/09/01 13:18:55;;;;;;;1.30;1.20;;;20.80;99.90;;;;;;6123376;23;20894;-70
2023/09/01 13:21:22;;;;;;;1.07;1.07;;;20.90;99.90;;;;;;6123350;23;20421;-71
2023/09/01 13:23:49;;;;;;;1.33;1.33;;;20.90;99.90;;;;;;6122436;23;20429;-70
2023/09/01 13:26:16;;;;;;;1.40;1.30;;;20.90;99.90;;;;;;6124327;23;20422;-71
2023/09/01 13:28:44;;;;;;;3.30;1.67;;;20.80;99.90;;;;;;6123548;23;20451;-71
2023/09/01 13:31:11;;;;;;;1.30;1.30;;;20.80;99.90;;;;;;6123965;23;20792;-71
2023/09/01 13:33:40;;;;;;;1.63;1.53;;;20.80;99.90;;;;;;6123935;23;20422;-71
2023/09/01 13:36:08;;;;;;;2.13;1.30;;;20.70;99.90;;;;;;6122657;23;20469;-71
2023/09/01 13:38:34;;;;;;;1.47;1.47;;;20.70;99.90;;;;;;6123866;23;20757;-71
2023/09/01 13:41:01;;;;;;;1.13;1.13;;;20.70;99.90;;;;;;6123175;23;20453;-71
2023/09/01 13:43:28;;;;;;;1.50;1.40;;;20.70;99.90;;;;;;6123351;23;20422;-71
2023/09/01 13:45:56;;;;;;;3.63;1.97;;;20.70;99.90;;;;;;6121552;23;20429;-71
2023/09/01 13:48:22;;;;;;;1.80;1.70;;;20.60;99.90;;;;;;6123737;23;20448;-71
2023/09/01 13:50:49;;;;;;;1.80;1.77;;;20.70;99.90;;;;;;6123335;23;20441;-71
2023/09/01 13:53:16;;;;;;;1.67;1.67;;;20.70;99.90;;;;;;6133196;23;20429;-71
2023/09/01 13:55:43;;;;;;;1.40;1.40;;;20.70;99.90;;;;;;6123385;23;20435;-71
2023/09/01 13:58:09;;;;;;;1.90;1.80;;;20.60;99.90;;;;;;6124689;23;20716;-71
2023/09/01 14:00:36;;;;;;;1.87;1.80;;;20.60;99.90;;;;;;6122329;23;20442;-71
2023/09/01 14:03:05;;;;;;;1.37;1.37;;;20.60;99.90;;;;;;6123330;23;20511;-71
2023/09/01 14:05:31;;;;;;;1.87;1.77;;;20.60;99.90;;;;;;6123315;23;20422;-70
2023/09/01 14:07:58;;;;;;;1.80;1.30;;;20.70;99.90;;;;;;6123477;23;20959;-71
2023/09/01 14:10:25;;;;;;;1.30;1.30;;;20.70;99.90;;;;;;6124222;23;20442;-70
2023/09/01 14:12:52;;;;;;;1.70;1.60;;;20.60;99.90;;;;;;6121751;23;20466;-71
2023/09/01 14:15:18;;;;;;;1.70;1.70;;;20.50;99.90;;;;;;6121928;23;20936;-70
2023/09/01 14:17:46;;;;;;;1.50;1.40;;;20.40;99.90;;;;;;6124796;23;20418;-69
2023/09/01 14:20:14;;;;;;;1.40;1.30;;;20.40;99.90;;;;;;6122693;23;20456;-71
2023/09/01 14:22:40;;;;;;;1.77;1.77;;;20.40;99.90;;;;;;6122711;23;20430;-69
2023/09/01 14:25:08;;;;;;;2.13;2.03;;;20.40;99.90;;;;;;6123820;23;20426;-70
2023/09/01 14:27:35;;;;;;;1.80;1.70;;;20.40;99.90;;;;;;6122426;23;20448;-70
2023/09/01 14:30:02;;;;;;;1.63;1.53;;;20.50;99.90;;;;;;6122354;23;20441;-71
2023/09/01 14:32:28;;;;;;;1.90;1.80;;;20.50;99.90;;;;;;6123743;23;20758;-71
2023/09/01 14:34:55;;;;;;;1.80;1.80;;;20.50;99.90;;;;;;6123167;23;20427;-70
2023/09/01 14:37:23;;;;;;;1.50;1.50;;;20.50;99.90;;;;;;6121871;23;20429;-70
2023/09/01 14:39:50;;;;;;;1.30;1.30;;;20.40;99.90;;;;;;6122844;23;20442;-70
2023/09/01 14:42:16;;;;;;;2.07;1.97;;;20.40;99.90;;;;;;6123090;23;20421;-69
2023/09/01 14:44:43;;;;;;;2.00;1.90;;;20.40;99.90;;;;;;6122250;23;20422;-69
2023/09/01 14:47:10;;;;;;;1.80;1.70;;;20.50;99.90;;;;;;6124342;23;20425;-69
2023/09/01 14:49:36;;;;;;;1.67;1.67;;;20.40;99.90;;;;;;6122933;23;20441;-69
2023/09/01 14:52:03;;;;;;;1.73;1.73;;;20.30;99.90;;;;;;6121895;23;20419;-69
2023/09/01 14:54:31;;;;;;;2.57;2.47;;;20.30;99.90;;;;;;6121982;23;20424;-70
2023/09/01 14:56:58;;;;;;;1.53;1.53;;;20.30;99.90;;;;;;6122187;23;20427;-70
2023/09/01 14:59:25;;;;;;;3.30;1.77;;;20.30;99.90;;;;;;6120740;23;20965;-70
2023/09/01 15:01:53;;;;;;;2.67;2.47;;;20.30;99.90;;;;;;6122119;23;20420;-70
2023/09/01 15:04:20;;;;;;;1.80;1.80;;;20.40;99.90;;;;;;6120405;23;20421;-71
2023/09/01 15:06:47;;;;;;;2.00;2.00;;;20.40;99.90;;;;;;6120902;23;20421;-70
2023/09/01 15:09:15;;;;;;;2.17;2.03;;;20.50;99.90;;;;;;6117170;23;20969;-70
2023/09/01 15:11:43;;;;;;;2.07;2.07;;;20.50;99.90;;;;;;6121435;23;20422;-70
2023/09/01 15:14:10;;;;;;;3.27;2.70;;;20.40;99.90;;;;;;6121184;23;20924;-71
2023/09/01 15:16:37;;;;;;;1.70;1.70;;;20.30;99.90;;;;;;6120887;23;20812;-70
2023/09/01 15:19:04;;;;;;;3.17;2.00;;;20.20;99.90;;;;;;6121386;23;20447;-70
2023/09/01 15:21:32;;;;;;;2.00;1.90;;;20.10;99.90;;;;;;6121228;23;20404;-70
2023/09/01 15:23:59;;;;;;;1.63;1.63;;;20.10;99.90;;;;;;6121571;23;20424;-71
2023/09/01 15:26:26;;;;;;;2.37;2.27;;;20.00;99.90;;;;;;6121836;23;20420;-71
2023/09/01 15:28:54;;;;;;;2.60;2.40;;;20.00;99.90;;;;;;6121451;23;20447;-71
2023/09/01 15:31:20;;;;;;;2.70;2.00;;;20.00;99.90;;;;;;6121931;23;20424;-70
2023/09/01 15:33:47;;;;;;;2.97;2.77;;;20.00;99.90;;;;;;6122110;23;20431;-71
2023/09/01 15:36:14;;;;;;;2.00;2.00;;;20.00;99.90;;;;;;6122253;23;20423;-71
2023/09/01 15:38:40;;;;;;;2.30;2.20;;;20.00;99.90;;;;;;6120708;23;20422;-70
2023/09/01 15:41:07;;;;;;;2.47;2.40;;;20.00;99.90;;;;;;6122176;23;20440;-71
2023/09/01 15:43:34;;;;;;;2.07;2.07;;;20.00;99.90;;;;;;6121592;23;20430;-71
2023/09/01 15:46:03;;;;;;;2.33;2.33;;;20.00;99.90;;;;;;6122678;23;20431;-71
2023/09/01 15:48:30;;;;;;;2.53;2.00;;;20.00;99.90;;;;;;6122083;23;20814;-71
2023/09/01 15:50:58;;;;;;;2.43;2.23;;;20.00;99.90;;;;;;6131736;23;20487;-71
2023/09/01 15:53:25;;;;;;;2.47;2.33;;;19.90;99.90;;;;;;6122032;23;20527;-71
2023/09/01 15:55:53;;;;;;;1.93;1.93;;;20.00;99.90;;;;;;6122335;23;20841;-70
2023/09/01 15:58:20;;;;;;;4.23;2.27;;;19.90;99.90;;;;;;6120649;23;20540;-71
2023/09/01 16:00:46;;;;;;;2.63;2.10;;;20.00;99.90;;;;;;6119282;23;20445;-71
2023/09/01 16:03:15;;;;;;;1.90;1.90;;;20.10;99.90;;;;;;6121561;23;20425;-70
2023/09/01 16:05:41;;;;;;;2.20;2.10;;;20.20;99.90;;;;;;6122314;23;20432;-70
2023/09/01 16:08:08;;;;;;;2.20;2.10;;;20.20;99.90;;;;;;6122614;23;20449;-70
2023/09/01 16:10:35;;;;;;;2.10;2.07;;;20.20;99.90;;;;;;6122188;23;20814;-70
2023/09/01 16:13:02;;;;;;;2.20;2.10;;;20.20;99.90;;;;;;6122112;23;20419;-70
2023/09/01 16:15:29;;;;;;;2.50;2.40;;;20.20;99.90;;;;;;6121440;23;20430;-71
2023/09/01 16:17:56;;;;;;;7.83;4.50;;;20.20;99.90;;;;;;6121712;23;20416;-70
2023/09/01 16:20:26;;;;;;;4.23;2.27;;;20.10;99.90;;;;;;6121143;23;21106;-71
2023/09/01 16:22:52;;;;;;;3.00;2.10;;;20.10;99.90;;;;;;6124253;23;20486;-72
2023/09/01 16:25:19;;;;;;;2.73;2.10;;;20.10;99.90;;;;;;6152933;23;20402;-69
2023/09/01 16:27:47;;;;;;;3.00;2.40;;;20.00;99.90;;;;;;6153672;23;20510;-70
2023/09/01 16:30:14;;;;;;;2.50;2.37;;;20.00;99.90;;;;;;6153203;23;20421;-70
2023/09/01 16:32:41;;;;;;;1.70;1.70;;;19.90;99.90;;;;;;6150369;23;20820;-70
2023/09/01 16:35:14;;;;;;;2.10;2.07;;;19.90;99.90;;;;;;6153074;23;20426;-70
2023/09/01 16:37:43;;;;;;;3.40;1.83;;;19.80;99.90;;;;;;6153312;23;20484;-70
2023/09/01 16:40:10;;;;;;;2.30;2.20;;;19.70;99.90;;;;;;6153745;23;20418;-70
2023/09/01 16:42:37;;;;;;;2.10;2.00;;;19.70;99.90;;;;;;6154420;23;20421;-70
2023/09/01 16:45:05;;;;;;;2.50;2.30;;;19.60;99.90;;;;;;6150314;23;20428;-71
2023/09/01 16:47:32;;;;;;;2.53;2.33;;;19.60;99.90;;;;;;6152742;23;20422;-70
2023/09/01 16:49:59;;;;;;;2.70;2.50;;;19.50;99.90;;;;;;6152660;23;20450;-70
2023/09/01 16:52:27;;;;;;;2.53;2.37;;;19.50;99.90;;;;;;6152682;23;20793;-72
2023/09/01 16:54:55;;;;;;;2.00;1.90;;;19.40;99.90;;;;;;6154110;23;20434;-70
2023/09/01 16:57:22;;;;;;;2.63;2.13;;;19.30;99.90;;;;;;6150989;23;20422;-70